Bookmark and Share
Track history (hours):
 

Calumet

More information available from US FCC via Universal Licensing System and Coast Guard Vessel Documentation Center.

Last reported at 2014-Feb-03 23:33 UTC. Time now 2014-Apr-18 13:08 UTC.
Position N 45°51' W 084°14'.
Warning: this ship's position is months out of date.

Length 192 m; draft 6.1 m.

Type: Cargo ship. MMSI: 367132630.

NotesDate/timePositionNaut miles runAvg speedWind from/ knotsBaromVisibWave heightAir tempDewpointWater temp
2014-Feb-03 23:33N 45°51' W 084°14'1312.6
2014-Feb-03 22:33N 45°51' W 084°32'9 8.8
2014-Feb-03 21:33N 45°49' W 084°45'7 6.5
2014-Feb-03 20:33N 45°50' W 084°54'6 5.5
2014-Feb-03 19:33N 45°51' W 085°02'2 1.9
2014-Feb-03 18:33N 45°51' W 085°04'2 2.0
2014-Feb-03 17:33N 45°51' W 085°07'1 0.8
2014-Feb-03 16:33N 45°51' W 085°08'2 2.4
2014-Feb-03 15:33N 45°51' W 085°12'2 2.4
2014-Feb-03 14:33N 45°52' W 085°15'1 1.2
2014-Feb-03 13:33N 45°52' W 085°17'0 0.1
2014-Feb-03 12:33N 45°52' W 085°17'0 0.0
2014-Feb-03 11:33N 45°52' W 085°17'0 0.0
2014-Feb-03 10:33N 45°52' W 085°17'0 0.0
2014-Feb-03 08:33N 45°52' W 085°17'0 0.0
2014-Feb-03 07:33N 45°52' W 085°17'0 0.0
2014-Feb-03 06:33N 45°52' W 085°17'0 0.0
2014-Feb-03 05:33N 45°52' W 085°17'0 0.0
2014-Feb-03 04:33N 45°52' W 085°17'0 0.0
2014-Feb-03 03:33N 45°52' W 085°17'0 0.1
2014-Feb-03 02:33N 45°52' W 085°17'1 1.0
2014-Feb-03 01:33N 45°52' W 085°18'1 1.3
2014-Feb-03 00:33N 45°52' W 085°20'6 6.3
2014-Feb-02 23:33N 45°53' W 085°29'5 5.1
2014-Feb-02 22:33N 45°52' W 085°36'1 0.6
2014-Feb-02 21:33N 45°52' W 085°37'2 1.8
2014-Feb-02 20:33N 45°51' W 085°39'0 0.3
2014-Feb-02 19:33N 45°51' W 085°40'1 0.8
2014-Feb-02 18:33N 45°51' W 085°41'0 0.3
2014-Feb-02 17:33N 45°51' W 085°41'0 0.4
2014-Feb-02 16:33N 45°50' W 085°42'0 0.0
2014-Feb-02 15:33N 45°50' W 085°42'0 0.2
2014-Feb-02 14:33N 45°50' W 085°42'0 0.0
2014-Feb-02 13:33N 45°50' W 085°42'0 0.0
2014-Feb-02 12:33N 45°50' W 085°42'0 0.0
2014-Feb-02 11:33N 45°50' W 085°42'0 0.0
2014-Feb-02 10:33N 45°50' W 085°42'0 0.0
2014-Feb-02 09:33N 45°50' W 085°42'0 0.0
2014-Feb-02 08:33N 45°50' W 085°42'0 0.0
2014-Feb-02 07:33N 45°50' W 085°42'0 0.0
2014-Feb-02 06:33N 45°50' W 085°42'0 0.0
2014-Feb-02 05:33N 45°50' W 085°42'0 0.0
2014-Feb-02 04:33N 45°50' W 085°42'0 0.0
2014-Feb-02 03:33N 45°50' W 085°42'0 0.0
2014-Feb-02 02:33N 45°50' W 085°42'0 0.1
2014-Feb-02 01:33N 45°50' W 085°42'0 0.0
2014-Feb-02 00:33N 45°50' W 085°42'0 0.2
2014-Feb-01 23:33N 45°50' W 085°42'0 0.0
2014-Feb-01 22:33N 45°50' W 085°42'0 0.0
2014-Feb-01 21:33N 45°50' W 085°42'0 0.2
2014-Feb-01 20:33N 45°50' W 085°43'0 0.1
2014-Feb-01 19:33N 45°50' W 085°43'2 1.8
2014-Feb-01 18:33N 45°50' W 085°45'0 0.0
2014-Feb-01 17:33N 45°50' W 085°45'0 0.0
2014-Feb-01 16:33N 45°50' W 085°45'0 0.1
2014-Feb-01 15:33N 45°50' W 085°45'0 0.0
2014-Feb-01 14:33N 45°50' W 085°45'1 0.9
2014-Feb-01 13:33N 45°50' W 085°47'0 0.0
2014-Feb-01 12:33N 45°50' W 085°47'0 0.0
2014-Feb-01 11:33N 45°50' W 085°47'0 0.0
2014-Feb-01 10:33N 45°50' W 085°47'0 0.0
2014-Feb-01 09:33N 45°50' W 085°47'0 0.0
2014-Feb-01 08:33N 45°50' W 085°47'0 0.0
2014-Feb-01 07:33N 45°50' W 085°47'0 0.0
2014-Feb-01 06:33N 45°50' W 085°47'0 0.0
2014-Feb-01 05:33N 45°50' W 085°47'0 0.0
2014-Feb-01 04:33N 45°50' W 085°47'0 0.0
2014-Feb-01 02:33N 45°50' W 085°47'0 0.0
2014-Feb-01 01:33N 45°50' W 085°47'0 0.3
2014-Feb-01 00:33N 45°50' W 085°46'0 0.4
2014-Jan-31 23:33N 45°50' W 085°46'0 0.0
2014-Jan-31 22:33N 45°50' W 085°46'0 0.0
2014-Jan-31 21:33N 45°50' W 085°46'0 0.0
2014-Jan-31 20:33N 45°50' W 085°46'0 0.0
2014-Jan-31 19:33N 45°50' W 085°46'0 0.0
2014-Jan-31 18:33N 45°50' W 085°46'8 8.5
2014-Jan-31 17:33N 45°47' W 085°57'  
2014-Jan-26 15:00N 44°06' W 086°48'   140 / 25994.2 -9.4 2.2

Dump ship's entire track history

sailing weather and tide predictions

Calumet — WDE3568 — position and weather